Destinations Paphos International Airport

Paphos International Airport (LCPH / PFO)

Flights to Paphos International Airport

Flight number From ETE Dispatch
SPY-2516 EGPH Edinburgh Airport 05:00

Flights from Paphos International Airport

Flight number To ETE Dispatch
SPY-2517 EGPH Edinburgh Airport 05:00
About

Paphos International Airport facts

Paphos International Airport is located in Paphos at an elevation of 12.5 meters or 41 feet.

Currently, Speedy Airlines serves 2 flights to and from Paphos International Airport.

Detailed airport info

Route map

Weather

Current weather

METAR

METAR

Metar data retrieved Sunday, 21 July 2024 at 18:55 UTC

LCPH 211830Z 32007KT 9999 FEW012 28/28 Q1004 NOSIG
Wind Temperature
7 kt 28c